Latest Coastal Weather Observations for Learmonth

IDW60701

Issued at 11:12 am WST Sunday 19 April 2015 (issued every 10 minutes, with the page automatically refreshed every 10 minutes)

About coastal observations | Map of coastal stations | Coastal observations for WA | Marine services | Other Formats
Station Details ID: 005007 Name: LEARMONTH AIRPORT Lat: -22.24 Lon: 114.10 Height: 5.0 m
Data from the previous 72 hours. | See also: Recent months at Learmonth
Date/Time
WST
Temp

°C
Wind Pressure Rain
since 9am
mm
Weather Cloud Vis
km
Sea
Height
m
Swell
Dir
 
Speed
knots
Gust
knots
hPa Trend Height
m
Period
s
Dir
19/11:00am 22.7 ENE 17 23 1016.8 - 0.0 - Mostly clear 10 - - - -
19/10:30am 22.6 ENE 17 22 1016.6 - 0.0 - Mostly clear 10 - - - -
19/10:00am 22.6 ENE 16 23 1016.7 - 0.0 - Mostly clear 10 - - - -
19/09:30am 22.4 ENE 15 20 1016.7 - 0.0 - Mostly clear 10 - - - -
19/09:00am 22.3 ENE 16 21 1016.2 R 12.2 Rain Cloudy 25 - - - -
19/08:30am 22.3 ENE 17 23 1015.9 - 12.2 - Mostly clear 10 - - - -
19/08:00am 22.1 ENE 16 20 1015.6 - 12.2 - Mostly clear 10 - - - -
19/07:54am 22.1 ENE 16 20 1015.6 - 12.2 - Mostly clear 10 - - - -
19/07:30am 21.9 ENE 14 19 1015.8 - 12.2 - Partly cloudy 10 - - - -
19/07:00am 21.7 ENE 15 20 1015.2 - 12.2 - Partly cloudy 10 - - - -
19/06:30am 21.8 ENE 13 17 1015.2 - 12.0 - Partly cloudy 10 - - - -
19/06:00am 21.7 ENE 12 14 1014.8 R 12.0 Rain Mostly cloudy 25 - - - -
19/05:53am 21.6 E 11 14 1014.8 - 12.0 Rain Mostly cloudy 10 - - - -
19/05:37am 21.7 E 11 13 1015.0 - 12.0 - Partly cloudy - - - - -
19/05:30am 21.5 E 10 13 1015.1 - 12.0 - Partly cloudy - - - - -
19/05:27am 21.6 E 10 13 1015.0 - 12.0 - Partly cloudy - - - - -
19/05:04am 21.7 E 9 11 1015.0 - 11.6 - Partly cloudy - - - - -
19/05:00am 21.6 E 9 12 1014.9 - 11.6 - Partly cloudy - - - - -
19/04:30am 21.9 E 13 16 1014.4 - 11.6 - Partly cloudy - - - - -
19/04:00am 21.9 E 13 17 1013.9 - 11.6 - Partly cloudy - - - - -
19/03:30am 22.1 ENE 13 16 1014.0 - 11.4 - Partly cloudy - - - - -
19/03:00am 22.3 E 12 15 1014.2 - 11.4 - Partly cloudy - - - - -
19/02:48am 22.4 E 12 15 1014.5 - 11.4 - Partly cloudy - - - - -
19/02:30am 22.4 E 11 15 1014.7 - 11.4 - Partly cloudy - - - - -
19/02:00am 22.4 E 13 16 1014.8 - 11.4 - Partly cloudy - - - - -
19/01:30am 22.5 E 16 21 1014.8 - 11.4 - Partly cloudy - - - - -
19/01:00am 22.7 E 16 21 1015.1 - 11.4 - Cloudy - - - - -
19/12:30am 23.0 E 19 25 1014.9 - 11.4 - Partly cloudy - - - - -
19/12:00am 23.1 E 16 23 1015.2 - 11.4 - Cloudy - - - - -
 
Date/Time
WST
Temp

°C
Wind Pressure Rain
since 9am
mm
Weather Cloud Vis
km
Sea
Height
m
Swell
Dir
 
Speed
knots
Gust
knots
hPa Trend Height
m
Period
s
Dir
18/11:30pm 23.1 E 20 26 1015.3 - 11.4 - Partly cloudy - - - - -
18/11:00pm 23.1 ENE 23 32 1014.9 - 11.4 - Partly cloudy - - - - -
18/10:59pm 23.1 ENE 22 32 1015.0 - 11.4 - Partly cloudy - - - - -
18/10:30pm 22.8 E 20 27 1015.3 - 11.4 - Partly cloudy - - - - -
18/10:00pm 22.6 ENE 21 29 1015.0 - 11.4 - Partly cloudy - - - - -
18/09:31pm 22.5 E 18 28 1015.3 - 11.4 - Partly cloudy - - - - -
18/09:30pm 22.5 E 17 23 1015.3 - 11.4 - Partly cloudy - - - - -
18/09:00pm 22.5 E 19 25 1015.1 - 11.4 - Partly cloudy - - - - -
18/08:30pm 22.5 E 18 25 1015.2 - 11.4 - - - - - - -
18/08:00pm 22.4 E 21 28 1014.7 - 11.4 - - - - - - -
18/07:30pm 22.1 E 17 22 1014.8 - 11.4 - - - - - - -
18/07:00pm 21.9 E 15 20 1015.3 - 11.4 - Partly cloudy - - - - -
18/06:30pm 21.9 ESE 13 17 1015.2 - 11.4 - Partly cloudy - - - - -
18/06:00pm 21.8 ESE 12 15 1014.7 - 11.2 - Cloudy - - - - -
18/05:30pm 21.9 E 12 15 1014.4 - 11.2 - Partly cloudy - - - - -
18/05:00pm 21.9 E 13 17 1014.0 - 11.0 - Partly cloudy - - - - -
18/04:30pm 22.1 E 12 16 1014.1 - 10.8 - Partly cloudy - - - - -
18/04:28pm 22.1 E 12 17 1014.1 - 10.8 - Partly cloudy - - - - -
18/04:00pm 22.2 E 11 15 1014.1 - 10.4 - Partly cloudy - - - - -
18/03:30pm 22.2 E 12 15 1014.2 - 9.8 - Partly cloudy - - - - -
18/03:18pm 22.1 E 13 17 1014.1 - 9.4 - Partly cloudy - - - - -
18/03:00pm 22.2 E 13 17 1014.0 - 9.2 - Cloudy - - - - -
18/02:52pm 22.2 E 14 17 1014.1 - 9.0 - Partly cloudy - - - - -
18/02:30pm 22.3 E 13 17 1014.2 - 9.0 - Partly cloudy - - - - -
18/02:29pm 22.3 E 13 17 1014.2 - 9.0 - Partly cloudy - - - - -
18/02:00pm 22.5 E 13 17 1014.3 - 8.8 - Partly cloudy - - - - -
18/01:30pm 22.1 E 15 18 1014.6 - 8.8 - Partly cloudy - - - - -
18/01:23pm 22.1 E 14 18 1014.6 - 8.8 - Partly cloudy - - - - -
18/01:00pm 22.1 E 13 17 1014.9 - 8.8 - Partly cloudy - - - - -
18/12:40pm 22.1 E 13 16 1015.3 - 8.8 - Partly cloudy - - - - -
18/12:30pm 22.0 E 13 16 1015.4 - 8.8 - Partly cloudy - - - - -
18/12:00pm 21.3 E 13 15 1015.9 - 8.4 - Cloudy - - - - -
18/11:46am 21.3 E 13 17 1016.4 - 8.0 - Partly cloudy - - - - -
18/11:30am 21.2 E 14 17 1016.6 - 7.8 - Partly cloudy - - - - -
18/11:00am 21.2 E 14 17 1017.0 - 6.6 - Partly cloudy - - - - -
18/10:55am 21.3 E 14 17 1017.0 - 6.6 - Partly cloudy - - - - -
18/10:30am 21.1 E 14 18 1017.2 - 5.8 - Partly cloudy - - - - -
18/10:22am 21.1 E 13 17 1017.2 - 5.6 - Partly cloudy - - - - -
18/10:06am 21.2 E 14 17 1017.4 - 4.8 - Partly cloudy - - - - -
18/10:00am 21.1 E 14 19 1017.3 - 4.6 - Partly cloudy - - - - -
18/09:49am 21.3 E 12 15 1017.3 - 3.6 - Partly cloudy - - - - -
18/09:30am 21.2 E 13 16 1017.3 - 2.6 - Partly cloudy - - - - -
18/09:00am 21.2 E 10 14 1017.0 - 7.6 - Cloudy - - - - -
18/08:47am 21.4 ESE 10 13 1016.9 - 6.6 - Partly cloudy - - - - -
18/08:37am 21.4 ESE 9 12 1016.7 - 6.0 - Partly cloudy - - - - -
18/08:30am 21.4 ESE 10 13 1016.6 - 5.8 - Partly cloudy - - - - -
18/08:11am 21.2 SE 7 9 1016.4 - 5.6 - Partly cloudy - - - - -
18/08:00am 21.2 SE 7 9 1016.3 - 5.2 - Partly cloudy - - - - -
18/07:30am 21.0 SSE 7 8 1015.9 - 4.2 - Partly cloudy - - - - -
18/07:00am 21.2 SSE 5 7 1015.6 - 3.8 - Partly cloudy - - - - -
18/06:30am 21.3 ESE 7 9 1015.4 - 3.0 - Partly cloudy - - - - -
18/06:00am 21.7 ESE 6 8 1015.1 - 1.6 - Cloudy - - - - -
18/05:30am 21.8 S 5 7 1015.0 - 1.2 - Cloudy - - - - -
18/05:00am 21.8 SSE 5 6 1014.7 - 1.0 - Partly cloudy - - - - -
18/04:30am 21.8 S 5 5 1014.7 - 1.0 - Partly cloudy - - - - -
18/04:00am 21.8 SSW 5 5 1014.5 - 1.0 - Partly cloudy - - - - -
18/03:30am 21.9 S 5 6 1014.7 - 0.8 - Cloudy - - - - -
18/03:00am 22.1 S 3 4 1014.8 - 0.6 - Cloudy - - - - -
18/02:30am 22.0 S 3 5 1015.1 - 0.6 - Cloudy - - - - -
18/02:00am 22.2 S 3 4 1015.3 - 0.6 - Cloudy - - - - -
18/01:30am 22.2 SSE 4 6 1015.6 - 0.6 - Cloudy - - - - -
18/01:00am 22.1 S 4 6 1015.7 - 0.6 - Cloudy - - - - -
18/12:30am 22.6 SSE 5 7 1015.7 - 0.6 - Cloudy - - - - -
18/12:00am 22.5 SE 5 6 1015.5 - 0.6 - Cloudy - - - - -
 
Date/Time
WST
Temp

°C
Wind Pressure Rain
since 9am
mm
Weather Cloud Vis
km
Sea
Height
m
Swell
Dir
 
Speed
knots
Gust
knots
hPa Trend Height
m
Period
s
Dir
17/11:30pm 22.8 E 6 7 1015.6 - 0.6 - Partly cloudy - - - - -
17/11:00pm 23.3 NE 5 6 1015.6 - 0.6 - Cloudy - - - - -
17/10:30pm 23.1 NE 6 7 1015.5 - 0.6 - Partly cloudy - - - - -
17/10:00pm 23.5 NNE 5 7 1015.5 - 0.4 - Partly cloudy - - - - -
17/09:30pm 23.6 N 1 6 1015.2 - 0.4 - Cloudy - - - - -
17/09:00pm 23.5 NNW 3 4 1015.5 - 0.4 - Cloudy - - - - -
17/08:30pm 23.5 N 1 4 1015.5 - 0.4 - Cloudy - - - - -
17/08:00pm 23.7 N 4 6 1015.1 - 0.4 - Partly cloudy - - - - -
17/07:30pm 24.1 CALM 0 0 1014.8 - 0.0 - Partly cloudy - - - - -
17/07:00pm 24.3 CALM 0 2 1014.6 - 0.0 - Partly cloudy - - - - -
17/06:30pm 24.4 CALM 0 5 1014.4 - 0.0 - Partly cloudy - - - - -
17/06:00pm 25.0 CALM 0 0 1014.1 - 0.0 - Mostly cloudy - - - - -
17/05:30pm 25.2 CALM 0 0 1013.9 - 0.0 - Partly cloudy - - - - -
17/05:00pm 24.9 S 7 11 1013.4 - 0.0 - Partly cloudy - - - - -
17/04:30pm 26.3 S 11 13 1013.4 - 0.0 - Partly cloudy - - - - -
17/04:00pm 27.1 SSE 9 12 1013.8 - 0.0 - Partly cloudy - - - - -
17/03:30pm 27.6 SSE 12 16 1013.4 - 0.0 - Partly cloudy - - - - -
17/03:00pm 27.9 S 7 10 1013.4 - 0.0 - Cloudy - - - - -
17/02:30pm 27.6 ENE 1 5 1013.8 - 0.0 - Partly cloudy - - - - -
17/02:00pm 27.5 E 4 6 1013.9 - 0.0 - - - - - - -
17/01:30pm 27.4 ENE 6 8 1013.8 - 0.0 - Partly cloudy - - - - -
17/01:00pm 27.1 E 6 9 1013.8 - 0.0 - Partly cloudy - - - - -
17/12:30pm 27.5 ESE 7 9 1013.9 - 0.0 - - - - - - -
17/12:00pm 27.4 E 7 9 1014.2 - 0.0 - Mostly clear - - - - -
17/11:30am 27.7 SE 2 5 1014.5 - 0.0 - Partly cloudy - - - - -
17/11:00am 27.0 ESE 4 6 1014.7 - 0.0 - Partly cloudy - - - - -
17/10:30am 26.5 SE 10 13 1015.3 - 0.0 - - - - - - -
17/10:00am 26.7 N 1 4 1015.5 - 0.0 - Partly cloudy - - - - -
17/09:30am 26.3 NE 7 9 1015.6 - 0.0 - Partly cloudy - - - - -
17/09:00am 26.1 E 7 10 1015.5 - 0.0 - - - - - - -
17/08:30am 24.6 SSE 8 10 1015.8 - 0.0 - Partly cloudy - - - - -
17/08:00am 24.4 E 7 8 1015.6 - 0.0 - Partly cloudy - - - - -
17/07:30am 23.3 CALM 0 0 1015.4 - 0.0 - Partly cloudy - - - - -
17/07:00am 23.1 SSW 5 6 1015.1 - 0.0 - Cloudy - - - - -
17/06:30am 23.0 SSW 5 6 1014.8 - 0.0 - Partly cloudy - - - - -
17/06:00am 22.8 SSW 6 7 1014.2 - 0.0 - Partly cloudy - - - - -
17/05:30am 23.3 SSW 7 8 1014.1 - 0.0 - Partly cloudy - - - - -
17/05:00am 23.0 SSW 6 8 1013.8 - 0.0 - - - - - - -
17/04:30am 23.3 SW 4 5 1013.5 - 0.0 - - - - - - -
17/04:00am 23.0 SSW 5 6 1013.6 - 0.0 - - - - - - -
17/03:30am 23.0 SSW 7 8 1013.8 - 0.0 - - - - - - -
17/03:00am 22.8 SSW 6 7 1013.7 - 0.0 - Partly cloudy - - - - -
17/02:30am 22.7 SW 7 8 1014.0 - 0.0 - Partly cloudy - - - - -
17/02:00am 23.2 SW 5 5 1013.9 - 0.0 - - - - - - -
17/01:30am 22.9 SSW 5 6 1014.0 - 0.0 - - - - - - -
17/01:00am 22.8 SW 6 7 1014.4 - 0.0 - - - - - - -
17/12:30am 23.2 SW 5 6 1014.7 - 0.0 - - - - - - -
17/12:00am 22.9 SSW 6 7 1014.6 - 0.0 - Mostly clear - - - - -
 
Date/Time
WST
Temp

°C
Wind Pressure Rain
since 9am
mm
Weather Cloud Vis
km
Sea
Height
m
Swell
Dir
 
Speed
knots
Gust
knots
hPa Trend Height
m
Period
s
Dir
16/11:30pm 23.2 SSW 7 7 1014.8 - 0.0 - Partly cloudy - - - - -
16/11:00pm 23.2 SSW 7 8 1015.0 - 0.0 - - - - - - -
16/10:30pm 23.5 SW 8 9 1015.2 - 0.0 - - - - - - -
16/10:00pm 24.2 SSW 7 8 1015.4 - 0.0 - Partly cloudy - - - - -
16/09:30pm 24.6 SSW 7 8 1015.7 - 0.0 - Partly cloudy - - - - -
16/09:00pm 24.6 SW 7 8 1015.5 - 0.0 - Mostly cloudy - - - - -
16/08:30pm 24.7 SW 8 8 1015.6 - 0.0 - Partly cloudy - - - - -
16/08:00pm 24.7 SW 8 9 1015.2 - 0.0 - - - - - - -
16/07:30pm 26.3 WSW 5 5 1014.9 - 0.0 - - - - - - -
16/07:00pm 26.6 SW 4 5 1014.5 - 0.0 - - - - - - -
16/06:30pm 26.6 SSW 5 6 1014.3 - 0.0 - - - - - - -
16/06:00pm 27.8 S 4 5 1013.9 - 0.0 - - - - - - -
16/05:30pm 29.5 CALM 0 5 1013.8 - 0.0 - - - - - - -
16/05:00pm 30.5 ESE 4 6 1013.6 - 0.0 - - - - - - -
16/04:30pm 30.9 ENE 2 4 1013.9 - 0.0 - - - - - - -
16/04:00pm 30.4 ENE 5 7 1013.9 - 0.0 - - - - - - -
16/03:30pm 30.9 SE 7 10 1013.8 - 0.0 - - - - - - -
16/03:00pm 31.1 SE 10 13 1013.7 F 0.0 Fine Mostly cloudy 30 - - - -
16/02:30pm 30.8 ESE 9 13 1014.0 - 0.0 - - 10 - - - -
16/02:00pm 30.2 SE 10 14 1014.3 - 0.0 - - 10 - - - -
16/01:30pm 30.4 SE 11 14 1014.7 - 0.0 - - 10 - - - -
16/01:00pm 29.5 ESE 11 13 1015.1 - 0.0 - - 10 - - - -
16/12:30pm 29.0 SE 11 15 1015.5 - 0.0 - - 10 - - - -
16/12:00pm 28.2 SE 12 16 1015.8 F 0.0 Fine Mostly cloudy 30 - - - -
16/11:30am 28.5 SE 14 18 1016.2 - 0.0 - - - - - - -

Other Formats:

Comma delimited format used in spreadsheet applications
http://www.bom.gov.au/fwo/IDW60701/IDW60701.94302.axf

JavaScript Object Notation format (JSON) in row-major order
http://www.bom.gov.au/fwo/IDW60701/IDW60701.94302.json